Time;durP1;ratioP1;P1;durP2;ratioP2;P2;SDS_P1;SDS_P2;PMS_P1;PMS_P2;Temp;Humidity;BMP_temperature;BMP_pressure;BME280_temperature;BME280_humidity;BME280_pressure;Samples;Min_cycle;Max_cycle;Signal;HPM_P1;HPM_P2
2022/05/10 00:01:36;;;;;;;;;28.25;28.00;;;;;-147.17;100.00;39930.34;5063154;28;52192;-54
2022/05/10 00:04:04;;;;;;;;;26.50;24.75;;;;;-147.17;100.00;39578.91;5072686;28;51058;-54
2022/05/10 00:06:35;;;;;;;;;23.00;22.25;;;;;-147.17;100.00;39231.44;5072900;28;50895;-53
2022/05/10 00:09:00;;;;;;;;;25.25;23.25;;;;;-147.17;100.00;38931.13;5071938;28;51013;-54
2022/05/10 00:11:25;;;;;;;;;24.75;24.00;;;;;-147.17;100.00;38754.47;5056550;28;53454;-54
2022/05/10 00:13:51;;;;;;;;;24.50;24.50;;;;;-147.17;100.00;38338.38;5058034;27;51120;-54
2022/05/10 00:16:18;;;;;;;;;29.50;28.75;;;;;-147.17;100.00;37855.63;5074024;28;51146;-54
2022/05/10 00:18:44;;;;;;;;;26.50;25.25;;;;;-147.17;100.00;37341.53;5066637;28;51369;-52
2022/05/10 00:21:12;;;;;;;;;27.75;27.00;;;;;-147.17;100.00;36725.50;5061000;28;52352;-50
2022/05/10 00:23:38;;;;;;;;;27.75;27.75;;;;;-147.17;100.00;36237.03;5054875;28;51167;-54
2022/05/10 00:26:04;;;;;;;;;23.00;22.75;;;;;-147.17;100.00;35732.97;5074897;28;51233;-59
2022/05/10 00:28:29;;;;;;;;;28.75;27.25;;;;;-147.17;100.00;35215.22;5065558;27;52973;-55
2022/05/10 00:30:54;;;;;;;;;28.25;26.25;;;;;-147.17;100.00;34248.56;5065889;28;51075;-55
2022/05/10 00:33:25;;;;;;;;;25.25;25.25;;;;;-147.17;100.00;33527.16;5069914;28;51096;-55
2022/05/10 00:35:51;;;;;;;;;27.50;26.50;;;;;-147.17;100.00;32941.13;5063093;28;51402;-55
2022/05/10 00:38:17;;;;;;;;;25.75;24.50;;;;;-147.17;100.00;31600.78;5061838;28;51085;-55
2022/05/10 00:40:43;;;;;;;;;30.75;28.75;;;;;-147.17;100.00;31698.75;5072635;27;51165;-59
2022/05/10 00:43:24;;;;;;;;;29.50;29.00;;;;;-147.17;100.00;30043.53;5075154;27;51202;-54
2022/05/10 00:46:05;;;;;;;;;24.75;23.50;;;;;-147.17;100.00;29804.63;5060409;27;50950;-56
2022/05/10 00:48:42;;;;;;;;;27.50;24.50;;;;;-147.17;100.00;29150.59;5066848;28;51006;-53
2022/05/10 00:51:22;;;;;;;;;27.25;26.00;;;;;-147.17;100.00;28612.19;5074404;28;52870;-54
2022/05/10 00:54:04;;;;;;;;;28.25;27.00;;;;;-147.17;100.00;27711.75;5068424;28;51031;-56
2022/05/10 00:56:46;;;;;;;;;29.50;29.00;;;;;-147.17;100.00;27152.03;5056110;28;50982;-56
2022/05/10 00:59:36;;;;;;;;;28.50;27.50;;;;;-147.17;100.00;24178.56;5067785;28;51164;-55
2022/05/10 01:02:43;;;;;;;;;26.25;25.50;;;;;-147.17;100.00;20992.44;5064915;27;52118;-53
2022/05/10 01:05:24;;;;;;;;;28.00;27.00;;;;;-147.17;100.00;19921.84;5045307;28;51094;-55
2022/05/10 01:08:03;;;;;;;;;29.50;28.75;;;;;-147.17;100.00;18421.97;5063487;28;51291;-55
2022/05/10 01:11:03;;;;;;;;;29.25;28.50;;;;;-147.17;100.00;17172.50;5071728;28;51022;-54
2022/05/10 01:13:37;;;;;;;;;24.25;24.25;;;;;-147.17;100.00;15174.22;5053753;28;51923;-55
2022/05/10 01:16:10;;;;;;;;;26.75;26.50;;;;;-147.17;100.00;13925.81;5070992;28;51045;-55
2022/05/10 01:18:36;;;;;;;;;27.25;25.75;;;;;-147.17;100.00;12927.34;5057125;27;51154;-55
2022/05/10 01:21:25;;;;;;;;;31.00;29.75;;;;;-147.17;100.00;11929.16;5051843;28;51338;-54
2022/05/10 01:23:51;;;;;;;;;25.25;24.50;;;;;-147.17;100.00;10931.25;5072031;28;51127;-54
2022/05/10 01:26:39;;;;;;;;;31.50;28.00;;;;;-147.17;100.00;10432.38;5074324;28;51101;-53
2022/05/10 01:29:10;;;;;;;;;29.00;26.00;;;;;-147.17;100.00;9185.47;5045473;28;51307;-55
2022/05/10 01:33:29;;;;;;;;;26.75;25.50;;;;;-147.17;100.00;7939.00;5066017;28;51347;-53
2022/05/10 01:34:35;;;;;;;;;30.75;29.75;;;;;-147.17;100.00;6942.09;5061111;27;51163;-54
2022/05/10 01:37:08;;;;;;;;;25.00;25.00;;;;;-147.17;100.00;6443.75;5059654;28;51161;-54
2022/05/10 01:39:45;;;;;;;;;27.75;26.50;;;;;-147.17;100.00;5696.34;5066980;28;50939;-53
2022/05/10 01:42:30;;;;;;;;;28.50;27.50;;;;;-147.17;100.00;5447.22;5059788;28;51147;-55
2022/05/10 01:45:16;;;;;;;;;32.00;27.50;;;;;-147.17;100.00;4201.94;5067367;28;52435;-55
2022/05/10 01:47:50;;;;;;;;;33.50;31.00;;;;;-147.17;100.00;3703.94;5074112;28;50975;-54
2022/05/10 01:50:18;;;;;;;;;27.00;25.75;;;;;-147.17;100.00;2708.13;5071870;28;51097;-54
2022/05/10 01:53:02;;;;;;;;;27.75;26.75;;;;;-147.17;100.00;1961.44;5066627;27;51329;-53
2022/05/10 01:55:34;;;;;;;;;27.00;26.75;;;;;-147.17;100.00;468.50;5064767;28;51292;-55
2022/05/10 01:58:11;;;;;;;;;31.00;29.25;;;;;-147.17;100.00;-526.47;5066374;28;51252;-55
2022/05/10 02:00:38;;;;;;;;;29.50;29.25;;;;;-147.17;100.00;-1769.84;5050410;28;52617;-57
2022/05/10 02:03:36;;;;;;;;;28.50;28.25;;;;;-147.17;100.00;-2267.06;5062671;28;51100;-53
2022/05/10 02:06:19;;;;;;;;;29.25;28.00;;;;;-147.17;100.00;-3261.34;5067906;28;51139;-54
2022/05/10 02:08:57;;;;;;;;;31.50;29.50;;;;;-147.17;100.00;-3261.34;5059633;27;51111;-54
2022/05/10 02:11:22;;;;;;;;;29.75;28.50;;;;;-147.17;100.00;-3509.84;5067314;28;51013;-55
2022/05/10 02:13:56;;;;;;;;;29.25;28.50;;;;;-147.17;100.00;-4006.88;5063240;27;51362;-56
2022/05/10 02:16:45;;;;;;;;;33.50;30.75;;;;;-147.17;100.00;-5497.50;5067976;28;51035;-53
2022/05/10 02:19:23;;;;;;;;;29.75;29.25;;;;;-147.17;100.00;-6242.59;5057683;28;51041;-54
2022/05/10 02:21:55;;;;;;;;;26.00;26.00;;;;;-147.17;100.00;-7235.84;5073744;28;51312;-55
2022/05/10 02:24:35;;;;;;;;;29.50;28.50;;;;;-147.17;100.00;-7980.59;5037843;28;51168;-54
2022/05/10 02:27:10;;;;;;;;;26.25;25.00;;;;;-147.17;100.00;-8973.38;5066550;27;51808;-54
2022/05/10 02:29:52;;;;;;;;;27.50;26.50;;;;;-147.17;100.00;-9221.53;5051511;28;50996;-55
2022/05/10 02:35:09;;;;;;;;;27.50;27.50;;;;;-147.17;100.00;-11454.25;5067375;28;50934;-54
2022/05/10 02:37:35;;;;;;;;;28.50;28.00;;;;;-147.17;100.00;-11950.22;5068235;28;52571;-55
2022/05/10 02:40:02;;;;;;;;;28.25;28.25;;;;;-147.17;100.00;-12446.13;5054612;28;51312;-54
2022/05/10 02:42:28;;;;;;;;;33.75;32.50;;;;;-147.17;100.00;-12694.06;5065356;27;51528;-54
2022/05/10 02:44:55;;;;;;;;;29.75;29.25;;;;;-147.17;100.00;-14429.16;5059870;28;51699;-55
2022/05/10 02:47:34;;;;;;;;;29.75;27.75;;;;;-147.17;100.00;-14924.75;5059750;28;52033;-55
2022/05/10 02:50:00;;;;;;;;;23.50;21.00;;;;;-147.17;100.00;-14429.16;5073014;28;51152;-55
2022/05/10 02:52:27;;;;;;;;;29.50;29.50;;;;;-147.17;100.00;-14429.16;5070056;28;51074;-50
2022/05/10 02:55:09;;;;;;;;;30.25;28.25;;;;;-147.17;100.00;-14429.16;5073235;28;51107;-54
2022/05/10 02:57:36;;;;;;;;;29.50;28.25;;;;;-147.17;100.00;-14181.31;5061563;27;52499;-54
2022/05/10 03:00:06;;;;;;;;;32.75;31.75;;;;;-147.17;100.00;-14676.94;5055510;28;51153;-55
2022/05/10 03:02:37;;;;;;;;;32.50;31.75;;;;;-147.17;100.00;-14924.75;5050882;28;51116;-53
2022/05/10 03:05:04;;;;;;;;;29.75;28.75;;;;;-147.17;100.00;-15172.50;5064150;28;51090;-52
2022/05/10 03:07:31;;;;;;;;;32.00;30.00;;;;;-147.17;100.00;-15420.25;5064308;28;52197;-56
2022/05/10 03:09:56;;;;;;;;;33.25;31.00;;;;;-147.17;100.00;-15420.25;5069016;28;51029;-55
2022/05/10 03:12:22;;;;;;;;;32.00;30.00;;;;;-147.17;100.00;-15420.25;5067531;28;51128;-55
2022/05/10 03:14:48;;;;;;;;;31.75;29.25;;;;;-147.17;100.00;-15172.50;5066548;27;51210;-56
2022/05/10 03:17:14;;;;;;;;;29.00;29.00;;;;;-147.17;100.00;-15668.00;5069466;28;51192;-55
2022/05/10 03:19:41;;;;;;;;;28.25;27.75;;;;;-147.17;100.00;-15420.25;5063459;28;51094;-54
2022/05/10 03:22:08;;;;;;;;;29.25;28.75;;;;;-147.17;100.00;-15420.25;5066769;28;51148;-55
2022/05/10 03:24:33;;;;;;;;;28.50;27.50;;;;;-147.17;100.00;-15668.00;5063510;28;50962;-55
2022/05/10 03:27:02;;;;;;;;;29.75;28.00;;;;;-147.17;100.00;-15915.72;5058248;28;51093;-54
2022/05/10 03:29:27;;;;;;;;;29.00;27.25;;;;;-147.17;100.00;-15668.00;5069917;27;51014;-53
2022/05/10 03:31:53;;;;;;;;;32.00;30.75;;;;;-147.17;100.00;-15668.00;5071705;28;50998;-54
2022/05/10 03:37:04;;;;;;;;;29.25;27.75;;;;;-147.17;100.00;-15668.00;5056517;28;51092;-55
2022/05/10 03:39:29;;;;;;;;;28.75;28.25;;;;;-147.17;100.00;-15915.72;5060765;28;51310;-53
2022/05/10 03:41:55;;;;;;;;;29.75;27.00;;;;;-147.17;100.00;-15668.00;5063982;28;51331;-55
2022/05/10 03:44:21;;;;;;;;;30.50;29.50;;;;;-147.17;100.00;-15668.00;5058756;28;51211;-54
2022/05/10 03:46:46;;;;;;;;;30.25;29.50;;;;;-147.17;100.00;-15915.72;5069955;27;51670;-54
2022/05/10 03:49:12;;;;;;;;;29.25;28.75;;;;;-147.17;100.00;-15915.72;5062553;28;51222;-53
2022/05/10 03:51:37;;;;;;;;;24.25;24.25;;;;;-147.17;100.00;-15917.19;5066410;28;51219;-55
2022/05/10 03:54:03;;;;;;;;;28.50;26.50;;;;;-147.17;100.00;-15917.19;5037147;28;51274;-55
2022/05/10 03:56:29;;;;;;;;;29.75;29.25;;;;;-147.17;100.00;-15915.72;5058057;28;51187;-59
2022/05/10 03:58:54;;;;;;;;;31.00;29.25;;;;;-147.17;100.00;-15915.72;5059122;28;51202;-54
2022/05/10 04:01:20;;;;;;;;;28.75;28.75;;;;;-147.17;100.00;-15915.72;5062583;28;51026;-54
2022/05/10 04:03:46;;;;;;;;;27.00;27.00;;;;;-147.17;100.00;-15915.72;5063544;28;51020;-53
2022/05/10 04:06:12;;;;;;;;;25.75;25.75;;;;;-147.17;100.00;-15915.72;5069004;27;51668;-55
2022/05/10 04:08:37;;;;;;;;;30.50;29.50;;;;;-147.17;100.00;-15915.72;5059473;28;51173;-55
2022/05/10 04:11:04;;;;;;;;;25.00;24.50;;;;;-147.17;100.00;-15915.72;5065752;28;51182;-55
2022/05/10 04:13:30;;;;;;;;;30.25;28.75;;;;;-147.17;100.00;-15915.72;5051635;28;51123;-56
2022/05/10 04:15:55;;;;;;;;;26.75;25.75;;;;;-147.17;100.00;-15915.72;5063947;28;52086;-55
2022/05/10 04:18:21;;;;;;;;;27.75;27.75;;;;;-147.17;100.00;-15915.72;5044615;28;51128;-53
2022/05/10 04:20:46;;;;;;;;;25.75;24.50;;;;;-147.17;100.00;-15668.00;5065869;27;51085;-55
2022/05/10 04:23:12;;;;;;;;;26.25;25.00;;;;;-147.17;100.00;-15668.00;5042984;28;50948;-54
2022/05/10 04:25:37;;;;;;;;;29.50;28.25;;;;;-147.17;100.00;-15668.00;5071106;28;51460;-55
2022/05/10 04:28:04;;;;;;;;;28.50;27.00;;;;;-147.17;100.00;-15668.00;5046861;28;51207;-55
2022/05/10 04:30:30;;;;;;;;;29.25;29.00;;;;;-147.17;100.00;-15420.25;5066842;28;51354;-54
2022/05/10 04:32:55;;;;;;;;;30.25;29.50;;;;;-147.17;100.00;-15420.25;5063564;28;50998;-53
2022/05/10 04:35:20;;;;;;;;;29.25;27.50;;;;;-147.17;100.00;-15420.25;5070061;27;51992;-55
2022/05/10 04:37:46;;;;;;;;;29.00;28.50;;;;;-147.17;100.00;-15172.50;5058765;28;51026;-55
2022/05/10 04:42:56;;;;;;;;;28.00;27.75;;;;;-147.17;100.00;-15172.50;5073216;27;51162;-54
2022/05/10 04:45:21;;;;;;;;;24.25;24.25;;;;;-147.17;100.00;-15172.50;5080169;27;51023;-54
2022/05/10 04:47:47;;;;;;;;;29.50;27.25;;;;;-147.17;100.00;-15172.50;5063575;28;50983;-55
2022/05/10 04:50:12;;;;;;;;;28.75;27.75;;;;;-147.17;100.00;-15172.50;5062776;28;51005;-55
2022/05/10 04:52:39;;;;;;;;;25.50;24.75;;;;;-147.17;100.00;-14676.94;5048799;27;52642;-55
2022/05/10 04:55:08;;;;;;;;;31.00;29.25;;;;;-147.17;100.00;-14676.94;5050454;28;53098;-55
2022/05/10 04:57:34;;;;;;;;;28.75;27.25;;;;;-147.17;100.00;-14429.16;5068320;28;51199;-54
2022/05/10 05:00:00;;;;;;;;;24.75;24.50;;;;;-147.17;100.00;-14181.31;5065467;28;51061;-55
2022/05/10 05:02:25;;;;;;;;;24.75;23.75;;;;;-147.17;100.00;-13933.50;5043831;28;51059;-53
2022/05/10 05:04:51;;;;;;;;;26.00;26.00;;;;;-147.17;100.00;-13685.63;5067117;28;50940;-56
2022/05/10 05:07:16;;;;;;;;;22.75;22.50;;;;;-147.17;100.00;-13189.88;5070529;28;50983;-55
2022/05/10 05:09:42;;;;;;;;;25.75;24.00;;;;;-147.17;100.00;-12694.06;5071447;27;51187;-55
2022/05/10 05:12:09;;;;;;;;;29.00;26.75;;;;;-147.17;100.00;-12446.13;5049552;28;51272;-55
2022/05/10 05:14:35;;;;;;;;;27.25;26.50;;;;;-147.17;100.00;-12198.19;5062007;28;51888;-53
2022/05/10 05:17:00;;;;;;;;;27.25;24.75;;;;;-147.17;100.00;-11702.25;5063936;28;51162;-54
2022/05/10 05:19:26;;;;;;;;;25.00;23.75;;;;;-147.17;100.00;-11206.22;5068395;28;51141;-54
2022/05/10 05:21:51;;;;;;;;;23.75;23.50;;;;;-147.17;100.00;-10710.16;5062655;28;51050;-54
2022/05/10 05:24:17;;;;;;;;;29.75;27.75;;;;;-147.17;100.00;-10710.16;5073781;28;51325;-55
2022/05/10 05:26:42;;;;;;;;;26.75;26.50;;;;;-147.17;100.00;-10462.09;5061402;27;51245;-54
2022/05/10 05:29:08;;;;;;;;;24.25;23.25;;;;;-147.17;100.00;-10214.00;5077663;27;51415;-54
2022/05/10 05:31:33;;;;;;;;;26.75;25.75;;;;;-147.17;100.00;-9717.81;5094183;27;51182;-54
2022/05/10 05:33:58;;;;;;;;;21.00;20.75;;;;;-147.17;100.00;-9469.69;5065485;27;51941;-54
2022/05/10 05:36:24;;;;;;;;;25.75;25.00;;;;;-147.17;100.00;-9221.53;5063456;28;51170;-54
2022/05/10 05:38:50;;;;;;;;;24.25;23.00;;;;;-147.17;100.00;-8973.38;5055288;28;50962;-51
2022/05/10 05:41:16;;;;;;;;;23.50;23.00;;;;;-147.17;100.00;-8725.22;5066670;27;51183;-56
2022/05/10 05:43:42;;;;;;;;;28.00;27.25;;;;;-147.17;100.00;-8725.22;5063334;28;51899;-57
2022/05/10 05:46:08;;;;;;;;;27.75;26.50;;;;;-147.17;100.00;-8228.81;5064473;28;51172;-55
2022/05/10 05:48:33;;;;;;;;;23.75;23.00;;;;;-147.17;100.00;-7980.59;5058300;28;51229;-55
2022/05/10 05:50:59;;;;;;;;;23.00;22.25;;;;;-147.17;100.00;-7484.09;5062463;27;51414;-54
2022/05/10 05:53:26;;;;;;;;;30.00;26.00;;;;;-147.17;100.00;-7732.34;5068475;28;50925;-54
2022/05/10 05:55:53;;;;;;;;;25.50;24.75;;;;;-147.17;100.00;-7235.84;5066540;28;51063;-55
2022/05/10 05:58:19;;;;;;;;;29.50;28.50;;;;;-147.17;100.00;-7235.84;5072283;28;50884;-55
2022/05/10 06:00:45;;;;;;;;;28.50;28.00;;;;;-147.17;100.00;-6739.25;5071734;27;50914;-56
2022/05/10 06:03:11;;;;;;;;;23.50;23.25;;;;;-147.17;100.00;-6490.94;5071874;28;50958;-55
2022/05/10 06:05:37;;;;;;;;;24.00;22.75;;;;;-147.17;100.00;-6242.59;5072819;28;51138;-54
2022/05/10 06:08:03;;;;;;;;;24.75;24.00;;;;;-147.17;100.00;-5497.50;5069650;28;51147;-55
2022/05/10 06:10:29;;;;;;;;;27.75;27.00;;;;;-147.17;100.00;-5249.09;5072894;28;50973;-55
2022/05/10 06:12:59;;;;;;;;;25.50;24.50;;;;;-147.17;100.00;-5000.69;5064659;27;52859;-56
2022/05/10 06:15:24;;;;;;;;;27.25;24.75;;;;;-147.17;100.00;-4255.34;5068588;28;50958;-55
2022/05/10 06:17:50;;;;;;;;;25.50;25.50;;;;;-147.17;100.00;-4255.34;5060903;27;51029;-56
2022/05/10 06:20:20;;;;;;;;;26.00;25.50;;;;;-147.17;100.00;-3758.38;5067034;28;51192;-55
2022/05/10 06:22:46;;;;;;;;;30.75;29.75;;;;;-147.17;100.00;-3758.38;5051536;28;51928;-54
2022/05/10 06:25:17;;;;;;;;;25.75;25.00;;;;;-147.17;100.00;-3758.38;5067750;28;50988;-54
2022/05/10 06:27:44;;;;;;;;;28.50;27.00;;;;;-147.17;100.00;-3509.84;5064921;28;51333;-55
2022/05/10 06:30:10;;;;;;;;;25.25;24.50;;;;;-147.17;100.00;-3012.78;5052707;28;51122;-54
2022/05/10 06:32:37;;;;;;;;;23.75;21.75;;;;;-147.17;100.00;-2267.06;5067435;28;52394;-55
2022/05/10 06:35:03;;;;;;;;;28.00;24.50;;;;;-147.17;100.00;-2267.06;5041662;28;51222;-54
2022/05/10 06:40:15;;;;;;;;;25.00;24.25;;;;;-147.17;100.00;-2018.47;5065906;27;51199;-55
2022/05/10 06:42:41;;;;;;;;;24.50;23.25;;;;;-147.17;100.00;-1769.84;5059256;28;51104;-56
2022/05/10 06:45:10;;;;;;;;;26.25;25.50;;;;;-147.17;100.00;-1023.88;5074978;27;51121;-55
2022/05/10 06:47:40;;;;;;;;;26.25;25.75;;;;;-147.17;100.00;468.50;5072791;28;51095;-55
2022/05/10 06:50:10;;;;;;;;;27.75;26.75;;;;;-147.17;100.00;1712.56;5063903;27;50865;-55
2022/05/10 06:52:35;;;;;;;;;23.00;23.00;;;;;-147.17;100.00;3703.94;5051041;28;51164;-54
2022/05/10 06:55:01;;;;;;;;;27.00;25.75;;;;;-147.17;100.00;5447.22;5081684;27;51151;-54
2022/05/10 06:57:26;;;;;;;;;26.50;26.50;;;;;-147.17;100.00;7689.75;5065258;27;50903;-53
2022/05/10 06:59:53;;;;;;;;;23.00;23.00;;;;;-147.17;100.00;8686.84;5072335;28;51001;-54
2022/05/10 07:02:19;;;;;;;;;22.50;21.75;;;;;-147.17;100.00;10182.97;5071680;28;51049;-55
2022/05/10 07:04:44;;;;;;;;;18.00;18.00;;;;;-147.17;100.00;13426.53;5072517;28;50922;-55
2022/05/10 07:07:09;;;;;;;;;19.25;18.25;;;;;-147.17;100.00;15423.94;5068023;27;51168;-56
2022/05/10 07:09:35;;;;;;;;;23.00;23.00;;;;;-147.17;100.00;16922.66;5050872;28;51132;-56
2022/05/10 07:12:00;;;;;;;;;23.75;22.00;;;;;-147.17;100.00;18671.91;5067509;28;51252;-55
2022/05/10 07:14:25;;;;;;;;;22.00;22.00;;;;;-147.17;100.00;20050.78;5059161;28;51068;-55
2022/05/10 07:16:51;;;;;;;;;20.00;20.00;;;;;-147.17;100.00;20842.00;5071613;28;51119;-54
2022/05/10 07:19:16;;;;;;;;;23.25;21.25;;;;;-147.17;100.00;22743.50;5072483;28;50946;-55
2022/05/10 07:21:41;;;;;;;;;21.75;21.00;;;;;-147.17;100.00;24644.00;5070130;28;51806;-55
2022/05/10 07:24:07;;;;;;;;;22.75;20.75;;;;;-147.17;100.00;26923.06;5057973;27;51014;-56
2022/05/10 07:26:32;;;;;;;;;21.00;19.50;;;;;-147.17;100.00;27923.16;5072014;28;50947;-57
2022/05/10 07:28:58;;;;;;;;;20.75;19.00;;;;;-147.17;100.00;28510.41;5058068;28;51238;-55
2022/05/10 07:31:23;;;;;;;;;21.25;20.50;;;;;-147.17;100.00;28659.19;5071520;28;51763;-55
2022/05/10 07:33:48;;;;;;;;;22.25;21.25;;;;;-147.17;100.00;28678.75;5071531;28;51115;-56
2022/05/10 07:36:28;;;;;;;;;21.00;21.00;;;;;-147.17;100.00;28715.97;5071787;28;51167;-56
2022/05/10 07:38:54;;;;;;;;;18.25;18.25;;;;;-147.17;100.00;29434.53;5062623;28;51060;-55
2022/05/10 07:41:22;;;;;;;;;19.75;19.00;;;;;-147.17;100.00;28729.66;5075251;27;52191;-55
2022/05/10 07:43:49;;;;;;;;;20.50;20.50;;;;;-147.17;100.00;30456.78;5055358;27;51038;-56
2022/05/10 07:46:14;;;;;;;;;25.75;25.25;;;;;-147.17;100.00;31424.47;5092317;27;51372;-53
2022/05/10 07:48:40;;;;;;;;;18.67;18.00;;;;;-147.17;100.00;31914.28;5079741;27;51131;-56
2022/05/10 07:51:05;;;;;;;;;22.25;21.50;;;;;-147.17;100.00;32472.75;5071680;28;51103;-55
2022/05/10 07:53:35;;;;;;;;;20.50;20.50;;;;;-147.17;100.00;33525.19;5050275;28;51099;-53
2022/05/10 07:56:02;;;;;;;;;22.25;21.00;;;;;-147.17;100.00;32888.19;5067754;28;51103;-56
2022/05/10 07:58:28;;;;;;;;;19.75;18.75;;;;;-147.17;100.00;32480.56;5043123;28;51070;-56
2022/05/10 08:00:53;;;;;;;;;20.25;19.25;;;;;-147.17;100.00;29892.75;5070928;27;52031;-55
2022/05/10 08:03:21;;;;;;;;;20.00;19.33;;;;;-147.17;100.00;29787.00;5071728;28;51029;-55
2022/05/10 08:05:47;;;;;;;;;16.67;16.67;;;;;-147.17;100.00;26568.91;5071527;28;51063;-54
2022/05/10 08:08:13;;;;;;;;;20.50;20.50;;;;;-147.17;100.00;28686.59;5070988;28;51143;-54
2022/05/10 08:10:42;;;;;;;;;21.25;21.00;;;;;-147.17;100.00;31759.50;5074060;27;51076;-56
2022/05/10 08:13:13;;;;;;;;;18.33;18.33;;;;;-147.17;100.00;34679.91;5058469;28;51237;-54
2022/05/10 08:15:39;;;;;;;;;20.25;20.25;;;;;-147.17;100.00;36439.09;5073101;27;51617;-55
2022/05/10 08:18:06;;;;;;;;;16.33;16.33;;;;;-147.17;100.00;37910.56;5074564;27;51066;-54
2022/05/10 08:20:31;;;;;;;;;20.00;19.25;;;;;-147.17;100.00;38566.06;5077438;27;52581;-54
2022/05/10 08:22:57;;;;;;;;;15.33;15.33;;;;;-147.17;100.00;39249.13;5077314;27;51132;-54
2022/05/10 08:25:22;;;;;;;;;19.00;18.00;;;;;-147.17;100.00;38919.34;5079963;27;50992;-56
2022/05/10 08:27:48;;;;;;;;;17.00;16.67;;;;;-147.17;100.00;37341.53;5075988;27;50899;-56
2022/05/10 08:30:13;;;;;;;;;16.00;15.67;;;;;-147.17;100.00;37009.94;5072196;27;51785;-55
2022/05/10 08:32:39;;;;;;;;;16.00;14.67;;;;;-147.17;100.00;37677.06;5054369;28;51092;-56
2022/05/10 08:35:06;;;;;;;;;17.33;16.33;;;;;-147.17;100.00;37161.03;5073608;28;51148;-56
2022/05/10 08:37:32;;;;;;;;;17.00;17.00;;;;;-147.17;100.00;36054.63;5055415;28;51101;-56
2022/05/10 08:39:58;;;;;;;;;34.75;30.25;;;;;-147.17;100.00;35485.84;5052378;28;53626;-56
2022/05/10 08:42:28;;;;;;;;;16.67;16.00;;;;;-147.17;100.00;36560.69;5056379;28;51038;-54
2022/05/10 08:44:58;;;;;;;;;17.00;16.67;;;;;-147.17;100.00;33462.47;5072809;27;51050;-55
2022/05/10 08:47:25;;;;;;;;;17.67;17.00;;;;;-147.17;100.00;31148.25;5072215;27;51028;-55
2022/05/10 08:49:52;;;;;;;;;15.00;14.33;;;;;-147.17;100.00;30519.47;5074282;28;52205;-56
2022/05/10 08:52:17;;;;;;;;;12.00;12.00;;;;;-147.17;100.00;34001.56;5074152;28;50903;-55
2022/05/10 08:54:44;;;;;;;;;13.67;13.00;;;;;-147.17;100.00;36154.66;5074275;28;51214;-55
2022/05/10 08:57:20;;;;;;;;;10.67;9.67;;;;;-147.17;100.00;36892.25;5073992;28;51323;-54
2022/05/10 09:00:03;;;;;;;;;13.75;13.25;;;;;-147.17;100.00;36439.09;5073085;28;54177;-59
2022/05/10 09:02:42;;;;;;;;;15.25;15.00;;;;;-147.17;100.00;37686.88;5075762;27;51323;-56
2022/05/10 09:05:30;;;;;;;;;13.33;13.33;;;;;-147.17;100.00;38149.97;5063205;27;50984;-56
2022/05/10 09:08:17;;;;;;;;;15.67;15.00;;;;;-147.17;100.00;38144.09;5063396;28;51165;-55
2022/05/10 09:10:50;;;;;;;;;15.33;15.00;;;;;-147.17;100.00;37945.88;5068344;28;51824;-56
2022/05/10 09:13:18;;;;;;;;;35.50;29.00;;;;;-147.17;100.00;37604.44;5067801;28;51138;-56
2022/05/10 09:15:49;;;;;;;;;15.00;15.00;;;;;-147.17;100.00;37934.13;5073436;28;51099;-57
2022/05/10 09:18:22;;;;;;;;;9.33;9.33;;;;;-147.17;100.00;38770.16;5073631;28;51377;-57
2022/05/10 09:21:11;;;;;;;;;16.00;16.00;;;;;-147.17;100.00;38662.22;5069456;27;51036;-55
2022/05/10 09:24:03;;;;;;;;;14.00;14.00;;;;;-147.17;100.00;39347.28;5060428;28;51036;-57
2022/05/10 09:26:38;;;;;;;;;14.67;12.67;;;;;-147.17;100.00;40124.72;5073157;28;51088;-56
2022/05/10 09:29:17;;;;;;;;;12.33;11.00;;;;;-147.17;100.00;40570.47;5073432;28;50890;-56
2022/05/10 09:34:45;;;;;;;;;12.00;11.67;;;;;-147.17;100.00;42403.00;5073651;28;50989;-56
2022/05/10 09:37:38;;;;;;;;;98.25;95.25;;;;;-147.17;100.00;43045.47;5062538;27;50856;-56
2022/05/10 09:40:19;;;;;;;;;17.25;15.00;;;;;-147.17;100.00;43344.16;5073853;28;51093;-57
2022/05/10 09:42:47;;;;;;;;;14.33;14.33;;;;;-147.17;100.00;43546.56;5073166;28;51691;-56
2022/05/10 09:45:20;;;;;;;;;12.67;12.67;;;;;-147.17;100.00;43627.13;5051497;28;51136;-56
2022/05/10 09:48:08;;;;;;;;;16.00;15.33;;;;;-147.17;100.00;43621.22;5071589;28;51230;-56
2022/05/10 09:50:43;;;;;;;;;14.00;14.00;;;;;-147.17;100.00;43350.03;5062495;27;50956;-55
2022/05/10 09:53:11;;;;;;;;;14.00;14.00;;;;;-147.17;100.00;43385.41;5071962;27;51676;-57
2022/05/10 09:55:37;;;;;;;;;16.00;16.00;;;;;-147.17;100.00;43161.41;5073204;28;51059;-56
2022/05/10 09:58:15;;;;;;;;;14.67;14.67;;;;;-147.17;100.00;43031.72;5072832;28;51061;-57
2022/05/10 10:00:44;;;;;;;;;13.67;13.67;;;;;-147.17;100.00;43194.81;5072445;28;51111;-56
2022/05/10 10:03:09;;;;;;;;;12.00;12.00;;;;;-147.17;100.00;43092.63;5072563;28;51101;-57
2022/05/10 10:05:36;;;;;;;;;17.75;15.50;;;;;-147.17;100.00;42953.13;5072703;28;51065;-57
2022/05/10 10:08:02;;;;;;;;;13.67;12.67;;;;;-147.17;100.00;42469.78;5072733;28;50891;-57
2022/05/10 10:10:37;;;;;;;;;15.33;13.67;;;;;-147.17;100.00;42253.69;5035127;27;51260;-56
2022/05/10 10:13:29;;;;;;;;;15.33;14.00;;;;;-147.17;100.00;42122.06;5071871;28;51934;-56
2022/05/10 10:15:55;;;;;;;;;15.67;14.67;;;;;-147.17;100.00;42171.19;5072188;28;50986;-56
2022/05/10 10:18:45;;;;;;;;;10.00;10.00;;;;;-147.17;100.00;42740.91;5072644;28;51057;-56
2022/05/10 10:21:17;;;;;;;;;13.00;13.00;;;;;-147.17;100.00;42990.44;5073111;28;51260;-56
2022/05/10 10:23:50;;;;;;;;;11.00;11.00;;;;;-147.17;100.00;43031.72;5070665;28;52051;-56
2022/05/10 10:26:40;;;;;;;;;14.00;13.67;;;;;-147.17;100.00;43071.00;5064770;27;50888;-56
2022/05/10 10:29:36;;;;;;;;;13.67;13.67;;;;;-147.17;100.00;43271.44;5070301;28;51142;-56
2022/05/10 10:32:10;;;;;;;;;14.33;13.67;;;;;-147.17;100.00;43440.44;5071723;28;51058;-57
2022/05/10 10:35:05;;;;;;;;;19.25;19.25;;;;;-147.17;100.00;43275.38;5057444;27;52944;-57
2022/05/10 10:37:37;;;;;;;;;13.33;13.00;;;;;-147.17;100.00;43220.34;5038382;28;52633;-57
2022/05/10 10:40:18;;;;;;;;;12.00;11.00;;;;;-147.17;100.00;43328.44;5069080;27;51358;-57
2022/05/10 10:42:52;;;;;;;;;11.00;10.00;;;;;-147.17;100.00;43298.94;5047471;28;51555;-56
2022/05/10 10:45:21;;;;;;;;;16.33;15.33;;;;;-147.17;100.00;43259.66;5064837;27;52402;-56
2022/05/10 10:48:05;;;;;;;;;11.00;11.00;;;;;-147.17;100.00;43177.13;5069785;27;51238;-57
2022/05/10 10:50:33;;;;;;;;;11.00;10.00;;;;;-147.17;100.00;42980.63;5068244;27;51380;-56
2022/05/10 10:53:00;;;;;;;;;11.33;11.00;;;;;-147.17;100.00;42962.94;5049895;27;51187;-57
2022/05/10 10:55:54;;;;;;;;;11.67;11.67;;;;;-147.17;100.00;43019.94;5066943;27;51662;-56
2022/05/10 10:58:33;;;;;;;;;12.00;12.00;;;;;-147.17;100.00;42874.53;5029527;27;51197;-57
2022/05/10 11:01:10;;;;;;;;;13.33;12.00;;;;;-147.17;100.00;42807.72;5061971;27;51303;-57
2022/05/10 11:03:56;;;;;;;;;13.00;12.67;;;;;-147.17;100.00;42782.19;5067053;27;51092;-56
2022/05/10 11:06:25;;;;;;;;;10.33;10.00;;;;;-147.17;100.00;42729.13;5062171;27;52161;-56
2022/05/10 11:09:11;;;;;;;;;13.33;13.33;;;;;-147.17;100.00;42599.47;5049405;28;51188;-57
2022/05/10 11:12:00;;;;;;;;;11.33;11.33;;;;;-147.17;100.00;42929.53;5067835;27;51095;-56
2022/05/10 11:14:55;;;;;;;;;10.00;10.00;;;;;-147.17;100.00;43137.81;5070983;27;51066;-58
2022/05/10 11:17:32;;;;;;;;;13.00;13.00;;;;;-147.17;100.00;43287.16;5066065;27;51125;-56
2022/05/10 11:20:15;;;;;;;;;12.33;12.33;;;;;-147.17;100.00;43473.84;5076935;27;51292;-56
2022/05/10 11:23:04;;;;;;;;;10.00;10.00;;;;;-147.17;100.00;43754.88;5066793;27;51127;-57